Accueil
METAR-TAF:

METAR-TAF

Aéroports :

Aérodrome de Forlì

Forlì, Italie

latitude: 44-12N, longitude: 012-04E, altitude: 27 m

Observation

Le bulletin a été fait il y a 24 minutes, à 04:50 UTC
Vent 2 kt de direction variable
Température 15°C
Humidité 82%
Pression 1011 hPa
Visibilité 10 km ou plus
pas de nuages en-dessous de 1500 mètres et pas de cumulonimbus.

METAR: LIPK 200450Z VRB02KT CAVOK 15/12 Q1011

Heure: 07:14 (05:14 UTC)

Prévision

Le bulletin a été fait il y a 53 minutes, à 04:21 UTC
Prévision valable du 20 à 05 UTC au 20 à 24 UTC
Vent 6 kt de direction variable
Visibilité 10 km ou plus
Nuages épars à une hauteur de 4000 ft
Evoluant progressivement
du 20 à 09 UTC au 20 à 12 UTC
Vent 10 kt de nord/nord-est
Temporairement
du 20 à 14 UTC au 20 à 24 UTC
pluie

TAF: LIPK 200421Z 2005/2024 VRB06KT 9999 SCT040 BECMG 2009/2012 03010KT TEMPO 2014/2024 RA

Observations et prévisions météorologiques de plus de 4000 aéroports (messages METAR et TAF).

Les stations disponibles sont représentées par des disques jaunes et rouges sur la carte.

Passer la souris dessus pour voir le nom de la station.

Cliquer dessus pour voir les observations et prévisions météorologiques.

Pour changer de carte: cliquez sur les boutons verts avec une croix noire pour zoomer, sur le bouton vert avec un tiret pour effectuer un zoom arrière, ou sur les flèches vertes pour les cartes adjacentes.


METAR-TAF: